sensor_id;sensor_type;location;lat;lon;timestamp;pressure;altitude;pressure_sealevel;temperature;humidity
62111;BME280;48102;47.526;19.072;2023-04-25T03:41:13;99330.19;;;10.68;100.00
62111;BME280;48102;47.526;19.072;2023-04-25T03:44:17;99330.19;;;10.68;100.00
62111;BME280;48102;47.526;19.072;2023-04-25T03:47:20;99328.41;;;10.15;100.00
62111;BME280;48102;47.526;19.072;2023-04-25T03:50:25;99329.56;;;10.11;100.00
62111;BME280;48102;47.526;19.072;2023-04-25T03:53:28;99331.31;;;10.10;100.00
62111;BME280;48102;47.526;19.072;2023-04-25T03:56:34;99335.66;;;10.11;100.00
62111;BME280;48102;47.526;19.072;2023-04-25T03:59:37;99334.72;;;10.12;100.00
62111;BME280;48102;47.526;19.072;2023-04-25T04:02:42;99336.09;;;10.18;100.00
62111;BME280;48102;47.526;19.072;2023-04-25T04:05:47;99342.50;;;10.14;100.00
62111;BME280;48102;47.526;19.072;2023-04-25T04:08:50;99338.37;;;10.10;100.00
62111;BME280;48102;47.526;19.072;2023-04-25T04:11:53;99339.03;;;10.13;100.00
62111;BME280;48102;47.526;19.072;2023-04-25T04:14:56;99345.25;;;10.12;100.00
62111;BME280;48102;47.526;19.072;2023-04-25T04:17:59;99352.84;;;10.17;100.00
62111;BME280;48102;47.526;19.072;2023-04-25T04:21:05;99347.00;;;10.26;100.00
62111;BME280;48102;47.526;19.072;2023-04-25T04:24:09;99351.88;;;10.18;100.00
62111;BME280;48102;47.526;19.072;2023-04-25T04:27:14;99349.75;;;10.24;100.00
62111;BME280;48102;47.526;19.072;2023-04-25T04:30:18;99351.13;;;10.30;100.00
62111;BME280;48102;47.526;19.072;2023-04-25T04:33:21;99342.50;;;10.28;100.00
62111;BME280;48102;47.526;19.072;2023-04-25T04:36:26;99347.25;;;10.36;100.00
62111;BME280;48102;47.526;19.072;2023-04-25T04:39:31;99352.63;;;10.34;100.00
62111;BME280;48102;47.526;19.072;2023-04-25T04:42:35;99361.78;;;10.28;100.00
62111;BME280;48102;47.526;19.072;2023-04-25T04:45:39;99354.72;;;10.29;100.00
62111;BME280;48102;47.526;19.072;2023-04-25T04:48:43;99354.06;;;10.25;100.00
62111;BME280;48102;47.526;19.072;2023-04-25T04:51:49;99359.81;;;10.32;100.00
62111;BME280;48102;47.526;19.072;2023-04-25T04:54:52;99359.50;;;10.37;100.00
62111;BME280;48102;47.526;19.072;2023-04-25T04:57:55;99359.75;;;10.46;100.00
62111;BME280;48102;47.526;19.072;2023-04-25T05:00:58;99369.50;;;10.44;100.00
62111;BME280;48102;47.526;19.072;2023-04-25T05:04:01;99355.56;;;10.29;100.00
62111;BME280;48102;47.526;19.072;2023-04-25T05:07:07;99362.50;;;10.30;100.00
62111;BME280;48102;47.526;19.072;2023-04-25T05:10:13;99358.09;;;10.17;100.00
62111;BME280;48102;47.526;19.072;2023-04-25T05:13:16;99352.87;;;10.02;100.00
62111;BME280;48102;47.526;19.072;2023-04-25T05:16:19;99365.41;;;9.85;100.00
62111;BME280;48102;47.526;19.072;2023-04-25T05:19:23;99367.56;;;9.78;100.00
62111;BME280;48102;47.526;19.072;2023-04-25T05:22:26;99366.84;;;9.76;100.00
62111;BME280;48102;47.526;19.072;2023-04-25T05:25:29;99372.44;;;9.70;100.00
62111;BME280;48102;47.526;19.072;2023-04-25T05:28:32;99374.16;;;9.57;100.00
62111;BME280;48102;47.526;19.072;2023-04-25T05:31:37;99363.53;;;9.44;100.00
62111;BME280;48102;47.526;19.072;2023-04-25T05:34:40;99375.16;;;9.25;100.00
62111;BME280;48102;47.526;19.072;2023-04-25T05:37:44;99372.25;;;9.16;100.00
62111;BME280;48102;47.526;19.072;2023-04-25T05:40:48;99373.69;;;9.05;100.00
62111;BME280;48102;47.526;19.072;2023-04-25T05:43:51;99374.06;;;8.99;100.00
62111;BME280;48102;47.526;19.072;2023-04-25T05:46:57;99369.16;;;8.93;100.00
62111;BME280;48102;47.526;19.072;2023-04-25T05:50:01;99371.78;;;8.93;100.00
62111;BME280;48102;47.526;19.072;2023-04-25T05:53:04;99368.53;;;8.90;100.00
62111;BME280;48102;47.526;19.072;2023-04-25T05:56:09;99381.00;;;8.86;100.00
62111;BME280;48102;47.526;19.072;2023-04-25T05:59:11;99381.44;;;8.78;100.00
62111;BME280;48102;47.526;19.072;2023-04-25T06:02:14;99386.13;;;8.88;100.00
62111;BME280;48102;47.526;19.072;2023-04-25T06:05:17;99392.34;;;8.87;100.00
62111;BME280;48102;47.526;19.072;2023-04-25T06:08:20;99377.25;;;8.90;100.00
62111;BME280;48102;47.526;19.072;2023-04-25T06:11:23;99394.69;;;8.91;100.00
62111;BME280;48102;47.526;19.072;2023-04-25T06:14:26;99392.66;;;8.96;100.00
62111;BME280;48102;47.526;19.072;2023-04-25T06:17:31;99390.97;;;8.95;100.00
62111;BME280;48102;47.526;19.072;2023-04-25T06:20:35;99392.38;;;9.01;100.00
62111;BME280;48102;47.526;19.072;2023-04-25T06:23:38;99390.03;;;9.11;100.00
62111;BME280;48102;47.526;19.072;2023-04-25T06:26:41;99390.66;;;9.30;100.00
62111;BME280;48102;47.526;19.072;2023-04-25T06:29:45;99391.78;;;9.40;100.00
62111;BME280;48102;47.526;19.072;2023-04-25T06:32:49;99400.06;;;9.48;100.00
62111;BME280;48102;47.526;19.072;2023-04-25T06:35:52;99406.94;;;9.65;100.00
62111;BME280;48102;47.526;19.072;2023-04-25T06:38:55;99398.28;;;9.92;100.00
62111;BME280;48102;47.526;19.072;2023-04-25T06:41:58;99398.00;;;10.11;100.00
62111;BME280;48102;47.526;19.072;2023-04-25T06:45:03;99394.78;;;10.20;100.00
62111;BME280;48102;47.526;19.072;2023-04-25T06:48:06;99400.75;;;10.50;100.00
62111;BME280;48102;47.526;19.072;2023-04-25T06:51:08;99402.62;;;10.48;100.00
62111;BME280;48102;47.526;19.072;2023-04-25T06:54:12;99404.34;;;10.49;100.00
62111;BME280;48102;47.526;19.072;2023-04-25T06:57:15;99403.38;;;10.77;100.00
62111;BME280;48102;47.526;19.072;2023-04-25T07:00:19;99407.63;;;10.93;100.00
62111;BME280;48102;47.526;19.072;2023-04-25T07:03:22;99403.31;;;11.04;100.00
62111;BME280;48102;47.526;19.072;2023-04-25T07:06:25;99409.00;;;10.98;100.00
62111;BME280;48102;47.526;19.072;2023-04-25T07:09:30;99403.75;;;10.98;100.00
62111;BME280;48102;47.526;19.072;2023-04-25T07:12:36;99407.34;;;10.97;100.00
62111;BME280;48102;47.526;19.072;2023-04-25T07:15:39;99404.81;;;11.09;100.00
62111;BME280;48102;47.526;19.072;2023-04-25T07:18:42;99408.13;;;11.25;100.00
62111;BME280;48102;47.526;19.072;2023-04-25T07:21:45;99401.38;;;11.34;100.00
62111;BME280;48102;47.526;19.072;2023-04-25T07:24:48;99402.00;;;11.37;100.00
62111;BME280;48102;47.526;19.072;2023-04-25T07:27:51;99406.22;;;11.91;100.00
62111;BME280;48102;47.526;19.072;2023-04-25T07:30:55;99409.19;;;11.99;100.00
62111;BME280;48102;47.526;19.072;2023-04-25T07:33:59;99408.81;;;12.29;100.00
62111;BME280;48102;47.526;19.072;2023-04-25T07:37:04;99401.56;;;12.68;100.00
62111;BME280;48102;47.526;19.072;2023-04-25T07:40:09;99413.91;;;12.80;100.00
62111;BME280;48102;47.526;19.072;2023-04-25T07:43:13;99410.75;;;12.75;100.00
62111;BME280;48102;47.526;19.072;2023-04-25T07:46:19;99414.41;;;12.85;100.00
62111;BME280;48102;47.526;19.072;2023-04-25T07:49:22;99414.37;;;13.09;100.00
62111;BME280;48102;47.526;19.072;2023-04-25T07:52:26;99413.63;;;13.31;100.00
62111;BME280;48102;47.526;19.072;2023-04-25T07:55:29;99421.03;;;13.72;100.00
62111;BME280;48102;47.526;19.072;2023-04-25T07:58:33;99421.78;;;14.08;100.00
62111;BME280;48102;47.526;19.072;2023-04-25T08:01:36;99419.09;;;14.53;100.00
62111;BME280;48102;47.526;19.072;2023-04-25T08:04:40;99420.66;;;14.55;100.00
62111;BME280;48102;47.526;19.072;2023-04-25T08:07:43;99423.72;;;14.83;100.00
62111;BME280;48102;47.526;19.072;2023-04-25T08:10:47;99408.63;;;15.16;100.00
62111;BME280;48102;47.526;19.072;2023-04-25T08:13:51;99410.88;;;15.62;100.00
62111;BME280;48102;47.526;19.072;2023-04-25T08:16:53;99423.16;;;15.84;100.00
62111;BME280;48102;47.526;19.072;2023-04-25T08:19:56;99412.22;;;15.98;100.00
62111;BME280;48102;47.526;19.072;2023-04-25T08:23:01;99420.88;;;16.41;100.00
62111;BME280;48102;47.526;19.072;2023-04-25T08:26:04;99418.94;;;16.62;99.59
62111;BME280;48102;47.526;19.072;2023-04-25T08:29:08;99414.91;;;16.58;98.11
62111;BME280;48102;47.526;19.072;2023-04-25T08:32:11;99410.84;;;16.54;95.55
62111;BME280;48102;47.526;19.072;2023-04-25T08:35:15;99417.38;;;16.40;99.79
62111;BME280;48102;47.526;19.072;2023-04-25T08:38:20;99422.97;;;16.37;92.74
62111;BME280;48102;47.526;19.072;2023-04-25T08:41:24;99425.91;;;16.44;87.59
62111;BME280;48102;47.526;19.072;2023-04-25T08:44:27;99428.41;;;16.76;93.37
62111;BME280;48102;47.526;19.072;2023-04-25T08:47:33;99427.16;;;16.90;91.47
62111;BME280;48102;47.526;19.072;2023-04-25T08:50:45;99437.06;;;16.78;87.30
62111;BME280;48102;47.526;19.072;2023-04-25T08:53:51;99431.97;;;16.65;85.43
62111;BME280;48102;47.526;19.072;2023-04-25T08:57:02;99445.94;;;16.48;91.75
62111;BME280;48102;47.526;19.072;2023-04-25T09:00:07;99441.03;;;16.93;90.54
62111;BME280;48102;47.526;19.072;2023-04-25T09:03:12;99449.44;;;17.08;90.83
62111;BME280;48102;47.526;19.072;2023-04-25T09:06:17;99431.97;;;16.65;95.45
62111;BME280;48102;47.526;19.072;2023-04-25T09:09:20;99438.22;;;16.95;94.84
62111;BME280;48102;47.526;19.072;2023-04-25T09:12:24;99450.81;;;17.22;85.09
62111;BME280;48102;47.526;19.072;2023-04-25T09:15:27;99443.69;;;17.03;83.97
62111;BME280;48102;47.526;19.072;2023-04-25T09:18:35;99454.34;;;17.03;83.97
62111;BME280;48102;47.526;19.072;2023-04-25T09:21:39;99436.53;;;16.84;82.28
62111;BME280;48102;47.526;19.072;2023-04-25T09:24:44;99441.59;;;16.97;79.67
62111;BME280;48102;47.526;19.072;2023-04-25T09:27:50;99445.03;;;17.65;77.28
62111;BME280;48102;47.526;19.072;2023-04-25T09:30:56;99438.97;;;17.92;72.55
62111;BME280;48102;47.526;19.072;2023-04-25T09:34:03;99441.56;;;18.67;78.76
62111;BME280;48102;47.526;19.072;2023-04-25T09:37:11;99437.97;;;19.21;64.56
62111;BME280;48102;47.526;19.072;2023-04-25T09:40:23;99436.47;;;18.18;70.56
62111;BME280;48102;47.526;19.072;2023-04-25T09:43:26;99433.00;;;18.08;68.13
62111;BME280;48102;47.526;19.072;2023-04-25T09:46:34;99438.78;;;19.04;70.72
62111;BME280;48102;47.526;19.072;2023-04-25T09:49:42;99435.66;;;19.26;65.21
62111;BME280;48102;47.526;19.072;2023-04-25T09:52:45;99438.47;;;19.25;63.15
62111;BME280;48102;47.526;19.072;2023-04-25T09:55:48;99439.75;;;19.21;60.25
62111;BME280;48102;47.526;19.072;2023-04-25T09:58:53;99437.25;;;19.01;60.39
62111;BME280;48102;47.526;19.072;2023-04-25T10:01:57;99439.19;;;19.53;63.43
62111;BME280;48102;47.526;19.072;2023-04-25T10:05:05;99435.81;;;19.69;58.67
62111;BME280;48102;47.526;19.072;2023-04-25T10:08:11;99433.72;;;19.80;58.16
62111;BME280;48102;47.526;19.072;2023-04-25T10:11:15;99431.38;;;19.60;58.47
62111;BME280;48102;47.526;19.072;2023-04-25T10:14:19;99442.94;;;19.42;55.03
62111;BME280;48102;47.526;19.072;2023-04-25T10:17:22;99435.50;;;19.10;58.04
62111;BME280;48102;47.526;19.072;2023-04-25T10:20:26;99437.94;;;19.03;57.08
62111;BME280;48102;47.526;19.072;2023-04-25T10:23:30;99429.63;;;18.71;54.80
62111;BME280;48102;47.526;19.072;2023-04-25T10:26:33;99434.88;;;18.25;58.90
62111;BME280;48102;47.526;19.072;2023-04-25T10:29:36;99434.44;;;18.30;63.26
62111;BME280;48102;47.526;19.072;2023-04-25T10:32:38;99425.44;;;18.03;56.96
62111;BME280;48102;47.526;19.072;2023-04-25T10:35:42;99436.94;;;18.14;61.13
62111;BME280;48102;47.526;19.072;2023-04-25T10:38:48;99421.25;;;18.01;61.39
62111;BME280;48102;47.526;19.072;2023-04-25T10:41:56;99429.72;;;17.87;64.63
62111;BME280;48102;47.526;19.072;2023-04-25T10:45:05;99432.44;;;18.14;56.61
62111;BME280;48102;47.526;19.072;2023-04-25T10:48:25;99432.25;;;18.43;53.51
62111;BME280;48102;47.526;19.072;2023-04-25T10:54:54;99440.50;;;19.49;56.48
62111;BME280;48102;47.526;19.072;2023-04-25T10:57:57;99440.16;;;19.26;55.64
62111;BME280;48102;47.526;19.072;2023-04-25T11:01:06;99442.03;;;19.95;54.08
62111;BME280;48102;47.526;19.072;2023-04-25T11:04:33;99452.97;;;19.40;49.58
62111;BME280;48102;47.526;19.072;2023-04-25T11:07:43;99438.84;;;19.48;52.28
62111;BME280;48102;47.526;19.072;2023-04-25T11:11:01;99460.34;;;19.46;51.77
62111;BME280;48102;47.526;19.072;2023-04-25T11:14:04;99453.09;;;19.57;49.20
62111;BME280;48102;47.526;19.072;2023-04-25T11:17:07;99452.44;;;19.37;49.83
62111;BME280;48102;47.526;19.072;2023-04-25T11:20:10;99454.94;;;19.38;50.21
62111;BME280;48102;47.526;19.072;2023-04-25T11:23:15;99456.62;;;19.39;49.09
62111;BME280;48102;47.526;19.072;2023-04-25T11:26:19;99465.38;;;19.67;49.57
62111;BME280;48102;47.526;19.072;2023-04-25T11:29:23;99465.75;;;19.72;49.07
62111;BME280;48102;47.526;19.072;2023-04-25T11:32:26;99463.66;;;20.10;46.80
62111;BME280;48102;47.526;19.072;2023-04-25T11:35:30;99460.22;;;19.66;46.69
62111;BME280;48102;47.526;19.072;2023-04-25T11:38:34;99465.69;;;20.16;46.61
62111;BME280;48102;47.526;19.072;2023-04-25T11:41:37;99468.66;;;20.39;45.20
62111;BME280;48102;47.526;19.072;2023-04-25T11:44:41;99469.47;;;20.05;46.99
62111;BME280;48102;47.526;19.072;2023-04-25T11:47:44;99473.31;;;19.77;47.88
62111;BME280;48102;47.526;19.072;2023-04-25T11:50:47;99470.75;;;19.93;47.03
62111;BME280;48102;47.526;19.072;2023-04-25T11:53:49;99477.84;;;18.87;48.20
62111;BME280;48102;47.526;19.072;2023-04-25T11:56:52;99476.03;;;19.05;49.19
62111;BME280;48102;47.526;19.072;2023-04-25T11:59:55;99475.66;;;19.00;46.95
62111;BME280;48102;47.526;19.072;2023-04-25T12:02:58;99479.62;;;19.14;50.11
62111;BME280;48102;47.526;19.072;2023-04-25T12:06:02;99479.59;;;19.32;46.69
62111;BME280;48102;47.526;19.072;2023-04-25T12:09:12;99491.06;;;19.24;46.68
62111;BME280;48102;47.526;19.072;2023-04-25T12:12:16;99493.59;;;19.26;44.36
62111;BME280;48102;47.526;19.072;2023-04-25T12:15:24;99492.59;;;19.09;46.33
62111;BME280;48102;47.526;19.072;2023-04-25T12:18:27;99496.19;;;19.18;49.10
62111;BME280;48102;47.526;19.072;2023-04-25T12:21:30;99487.84;;;19.74;49.60
62111;BME280;48102;47.526;19.072;2023-04-25T12:24:40;99494.38;;;21.25;45.92
62111;BME280;48102;47.526;19.072;2023-04-25T12:27:42;99490.31;;;23.51;39.25
62111;BME280;48102;47.526;19.072;2023-04-25T12:31:05;99483.03;;;25.44;35.71
62111;BME280;48102;47.526;19.072;2023-04-25T12:34:08;99472.84;;;28.84;31.36
62111;BME280;48102;47.526;19.072;2023-04-25T12:37:11;99470.59;;;31.65;27.41
62111;BME280;48102;47.526;19.072;2023-04-25T12:40:14;99465.38;;;34.10;24.23
62111;BME280;48102;47.526;19.072;2023-04-25T12:43:17;99468.63;;;35.17;22.04
62111;BME280;48102;47.526;19.072;2023-04-25T12:46:20;99449.22;;;36.30;21.64
62111;BME280;48102;47.526;19.072;2023-04-25T12:49:23;99440.16;;;38.15;20.66
62111;BME280;48102;47.526;19.072;2023-04-25T12:52:25;99436.91;;;38.73;18.46
62111;BME280;48102;47.526;19.072;2023-04-25T12:55:28;99435.13;;;40.24;18.36
62111;BME280;48102;47.526;19.072;2023-04-25T12:58:32;99429.22;;;38.64;16.30
62111;BME280;48102;47.526;19.072;2023-04-25T13:01:36;99429.53;;;38.63;18.14
62111;BME280;48102;47.526;19.072;2023-04-25T13:04:39;99420.44;;;37.31;18.35
62111;BME280;48102;47.526;19.072;2023-04-25T13:07:42;99428.28;;;38.89;17.39
62111;BME280;48102;47.526;19.072;2023-04-25T13:10:45;99418.81;;;40.27;16.09
62111;BME280;48102;47.526;19.072;2023-04-25T13:13:47;99418.44;;;38.73;16.66
62111;BME280;48102;47.526;19.072;2023-04-25T13:16:50;99415.19;;;40.51;15.06
62111;BME280;48102;47.526;19.072;2023-04-25T13:19:53;99415.88;;;41.37;16.64
62111;BME280;48102;47.526;19.072;2023-04-25T13:22:57;99398.59;;;42.19;14.90
62111;BME280;48102;47.526;19.072;2023-04-25T13:26:01;99406.94;;;41.59;14.43
62111;BME280;48102;47.526;19.072;2023-04-25T13:29:04;99403.56;;;40.92;14.85
62111;BME280;48102;47.526;19.072;2023-04-25T13:32:08;99391.22;;;41.41;16.45
62111;BME280;48102;47.526;19.072;2023-04-25T13:35:12;99397.50;;;41.27;16.22
62111;BME280;48102;47.526;19.072;2023-04-25T13:38:16;99388.41;;;39.16;16.81
62111;BME280;48102;47.526;19.072;2023-04-25T13:41:19;99395.22;;;41.16;14.69
62111;BME280;48102;47.526;19.072;2023-04-25T13:44:22;99397.31;;;42.53;14.09
62111;BME280;48102;47.526;19.072;2023-04-25T13:47:25;99397.31;;;43.48;14.91
62111;BME280;48102;47.526;19.072;2023-04-25T13:50:29;99392.53;;;44.68;12.41
62111;BME280;48102;47.526;19.072;2023-04-25T13:53:32;99385.25;;;44.23;12.37
62111;BME280;48102;47.526;19.072;2023-04-25T13:56:35;99380.38;;;43.04;13.25
62111;BME280;48102;47.526;19.072;2023-04-25T13:59:39;99382.44;;;42.63;13.16
62111;BME280;48102;47.526;19.072;2023-04-25T14:02:43;99390.59;;;40.73;12.91
62111;BME280;48102;47.526;19.072;2023-04-25T14:05:46;99381.72;;;41.47;14.23
62111;BME280;48102;47.526;19.072;2023-04-25T14:08:49;99386.16;;;42.58;13.75
62111;BME280;48102;47.526;19.072;2023-04-25T14:11:53;99377.94;;;40.29;13.91
62111;BME280;48102;47.526;19.072;2023-04-25T14:14:56;99376.19;;;39.91;14.00
62111;BME280;48102;47.526;19.072;2023-04-25T14:17:59;99370.34;;;37.80;15.85
62111;BME280;48102;47.526;19.072;2023-04-25T14:21:02;99373.88;;;35.53;17.22
62111;BME280;48102;47.526;19.072;2023-04-25T14:24:06;99372.78;;;31.63;20.51
62111;BME280;48102;47.526;19.072;2023-04-25T14:27:08;99366.16;;;30.34;22.15
62111;BME280;48102;47.526;19.072;2023-04-25T14:30:12;99376.00;;;32.36;19.91
62111;BME280;48102;47.526;19.072;2023-04-25T14:33:15;99363.47;;;32.23;20.46
62111;BME280;48102;47.526;19.072;2023-04-25T14:36:18;99355.59;;;31.98;21.03
62111;BME280;48102;47.526;19.072;2023-04-25T14:39:20;99357.44;;;30.43;23.21
62111;BME280;48102;47.526;19.072;2023-04-25T14:42:23;99363.88;;;31.56;21.43
62111;BME280;48102;47.526;19.072;2023-04-25T14:45:26;99363.38;;;32.87;18.77
62111;BME280;48102;47.526;19.072;2023-04-25T14:48:30;99365.31;;;33.54;18.65
62111;BME280;48102;47.526;19.072;2023-04-25T14:51:33;99363.81;;;34.02;18.68
62111;BME280;48102;47.526;19.072;2023-04-25T14:54:36;99358.63;;;38.29;16.55
62111;BME280;48102;47.526;19.072;2023-04-25T14:57:38;99365.22;;;38.88;16.30
62111;BME280;48102;47.526;19.072;2023-04-25T15:00:42;99374.53;;;40.94;14.28
62111;BME280;48102;47.526;19.072;2023-04-25T15:03:46;99367.34;;;41.45;13.30
62111;BME280;48102;47.526;19.072;2023-04-25T15:06:49;99376.37;;;39.41;14.00
62111;BME280;48102;47.526;19.072;2023-04-25T15:09:51;99374.41;;;40.85;13.92
62111;BME280;48102;47.526;19.072;2023-04-25T15:12:56;99381.25;;;42.14;13.12
62111;BME280;48102;47.526;19.072;2023-04-25T15:15:59;99380.28;;;42.96;12.88
62111;BME280;48102;47.526;19.072;2023-04-25T15:19:02;99389.56;;;43.58;12.49
62111;BME280;48102;47.526;19.072;2023-04-25T15:22:08;99382.19;;;45.38;11.90
